createdAt,value
2018-03-24T00:00:11.402Z,7.07
2018-03-24T00:05:15.431Z,8.60
2018-03-24T00:10:19.242Z,8.67
2018-03-24T00:15:22.462Z,7.83
2018-03-24T00:20:26.144Z,7.70
2018-03-24T00:25:29.612Z,7.73
2018-03-24T00:30:33.085Z,8.70
2018-03-24T00:35:36.313Z,8.60
2018-03-24T00:40:40.222Z,7.77
2018-03-24T00:45:44.133Z,7.70
2018-03-24T00:50:47.859Z,7.97
2018-03-24T00:55:51.503Z,7.10
2018-03-24T01:00:54.773Z,6.97
2018-03-24T01:05:58.008Z,7.20
2018-03-24T01:11:01.258Z,5.97
2018-03-24T01:16:04.579Z,6.33
2018-03-24T01:21:07.812Z,6.50
2018-03-24T01:26:11.529Z,5.63
2018-03-24T01:31:15.063Z,6.57
2018-03-24T01:36:18.293Z,5.60
2018-03-24T01:41:21.540Z,5.87
2018-03-24T01:46:24.951Z,4.97
2018-03-24T01:51:28.223Z,6.03
2018-03-24T01:56:31.580Z,5.00
2018-03-24T02:01:35.589Z,5.47
2018-03-24T02:06:38.829Z,4.10
2018-03-24T02:11:42.059Z,5.00
2018-03-24T02:16:45.316Z,4.80
2018-03-24T02:21:48.609Z,5.40
2018-03-24T02:26:51.836Z,4.93
2018-03-24T02:31:55.580Z,4.77
2018-03-24T02:42:34.415Z,4.93
2018-03-24T02:47:38.033Z,5.07
2018-03-24T02:52:41.903Z,4.90
2018-03-24T02:57:45.253Z,4.40
2018-03-24T03:02:48.503Z,4.63
2018-03-24T03:07:51.980Z,5.80
2018-03-24T03:12:55.688Z,5.40
2018-03-24T03:17:58.908Z,3.93
2018-03-24T03:23:02.848Z,4.47
2018-03-24T03:28:06.143Z,4.80
2018-03-24T03:33:09.361Z,5.03
2018-03-24T03:38:12.857Z,4.87
2018-03-24T03:43:16.508Z,4.80
2018-03-24T03:48:19.863Z,5.07
2018-03-24T03:53:23.197Z,5.47
2018-03-24T03:58:26.851Z,4.90
2018-03-24T04:03:31.353Z,5.80
2018-03-24T04:08:34.795Z,4.90
2018-03-24T04:13:38.040Z,5.37
2018-03-24T04:18:41.353Z,4.33
2018-03-24T04:34:54.145Z,4.23
2018-03-24T04:39:57.464Z,5.73
2018-03-24T04:45:00.677Z,5.57
2018-03-24T04:50:04.375Z,4.27
2018-03-24T04:55:07.590Z,4.97
2018-03-24T05:00:11.939Z,4.53
2018-03-24T05:05:15.218Z,3.57
2018-03-24T05:10:18.599Z,4.63
2018-03-24T05:15:22.082Z,5.17
2018-03-24T05:20:25.785Z,4.07
2018-03-24T05:25:29.170Z,4.50
2018-03-24T05:30:32.884Z,3.07
2018-03-24T05:35:36.132Z,3.60
2018-03-24T05:40:39.343Z,4.47
2018-03-24T05:45:42.704Z,3.80
2018-03-24T05:50:45.966Z,3.30
2018-03-24T05:55:49.189Z,4.30
2018-03-24T06:00:52.404Z,9.83
2018-03-24T06:11:29.366Z,2.80
2018-03-24T06:16:32.990Z,2.53
2018-03-24T06:21:36.288Z,3.07
2018-03-24T06:26:39.992Z,3.13
2018-03-24T06:31:58.142Z,3.33
2018-03-24T06:37:05.814Z,2.80
2018-03-24T06:42:09.016Z,2.90
2018-03-24T06:47:12.248Z,3.03
2018-03-24T06:52:15.465Z,3.43
2018-03-24T06:57:19.084Z,3.40
2018-03-24T07:02:22.412Z,3.07
2018-03-24T07:07:25.710Z,3.97
2018-03-24T07:12:29.328Z,2.63
2018-03-24T07:17:33.037Z,3.37
2018-03-24T07:22:36.676Z,3.20
2018-03-24T07:27:40.607Z,3.97
2018-03-24T07:32:43.991Z,3.80
2018-03-24T07:37:48.367Z,3.53
2018-03-24T07:42:51.616Z,2.97
2018-03-24T07:47:54.851Z,3.67
2018-03-24T07:52:58.581Z,3.03
2018-03-24T07:58:01.946Z,3.37
2018-03-24T08:03:05.238Z,2.97
2018-03-24T08:08:08.575Z,3.53
2018-03-24T08:13:12.214Z,3.57
2018-03-24T08:18:15.485Z,3.20
2018-03-24T08:23:18.766Z,3.43
2018-03-24T08:28:22.099Z,3.73
2018-03-24T08:33:25.397Z,6.13
2018-03-24T08:38:28.621Z,4.50
2018-03-24T08:43:32.021Z,3.93
2018-03-24T08:48:35.355Z,4.53
2018-03-24T08:53:38.570Z,4.63
2018-03-24T08:58:41.980Z,5.20
2018-03-24T09:03:45.249Z,4.40
2018-03-24T09:08:48.496Z,4.80
2018-03-24T09:13:51.756Z,4.70
2018-03-24T09:18:54.984Z,4.43
2018-03-24T09:23:58.617Z,4.40
2018-03-24T09:29:01.992Z,4.40
2018-03-24T09:34:05.224Z,4.93
2018-03-24T09:39:08.707Z,4.23
2018-03-24T09:44:11.951Z,3.47
2018-03-24T09:49:15.229Z,3.93
2018-03-24T09:54:19.448Z,3.90
2018-03-24T09:59:22.703Z,4.37
2018-03-24T10:04:25.933Z,4.23
2018-03-24T10:09:29.178Z,4.33
2018-03-24T10:14:32.885Z,3.60
2018-03-24T10:19:36.294Z,3.93
2018-03-24T10:24:39.921Z,4.47
2018-03-24T10:29:43.848Z,4.00
2018-03-24T10:40:17.378Z,4.17
2018-03-24T10:45:20.621Z,3.50
2018-03-24T10:50:23.845Z,4.57
2018-03-24T10:55:27.085Z,3.47
2018-03-24T11:00:33.170Z,4.17
2018-03-24T11:05:36.818Z,3.40
2018-03-24T11:10:40.098Z,3.23
2018-03-24T11:15:43.742Z,3.80
2018-03-24T11:20:47.017Z,2.83
2018-03-24T11:25:50.661Z,1.80
2018-03-24T11:30:53.903Z,2.43
2018-03-24T11:35:57.137Z,3.15
2018-03-24T11:41:00.945Z,3.30
2018-03-24T11:46:04.261Z,4.40
2018-03-24T11:51:08.091Z,3.75
2018-03-24T11:56:12.328Z,3.87
2018-03-24T12:01:15.597Z,3.90
2018-03-24T12:06:18.819Z,3.90
2018-03-24T12:11:22.049Z,3.80
2018-03-24T12:16:25.365Z,3.58
2018-03-24T12:21:28.638Z,5.68
2018-03-24T12:26:32.368Z,4.47
2018-03-24T12:31:36.003Z,3.42
2018-03-24T12:36:39.279Z,4.32
2018-03-24T12:41:43.093Z,3.95
2018-03-24T12:46:46.743Z,3.70
2018-03-24T12:51:50.220Z,4.32
2018-03-24T12:56:53.934Z,4.32
2018-03-24T13:01:57.565Z,4.35
2018-03-24T13:07:01.295Z,4.47
2018-03-24T13:12:04.566Z,4.30
2018-03-24T13:17:07.789Z,4.18
2018-03-24T13:22:11.506Z,4.70
2018-03-24T13:27:15.159Z,4.32
2018-03-24T13:32:18.415Z,4.75
2018-03-24T13:37:21.733Z,4.85
2018-03-24T13:42:25.606Z,4.17
2018-03-24T13:47:29.055Z,4.47
2018-03-24T13:52:32.290Z,3.60
2018-03-24T13:57:35.499Z,4.20
2018-03-24T14:02:38.750Z,4.17
2018-03-24T14:07:41.977Z,4.90
2018-03-24T14:12:45.605Z,4.53
2018-03-24T14:17:49.220Z,5.12
2018-03-24T14:22:52.853Z,5.60
2018-03-24T14:27:56.082Z,4.95
2018-03-24T14:32:59.306Z,5.25
2018-03-24T14:38:02.619Z,4.37
2018-03-24T14:43:09.699Z,4.47
2018-03-24T14:48:13.792Z,4.68
2018-03-24T14:53:17.245Z,5.30
2018-03-24T14:58:20.880Z,4.95
2018-03-24T15:03:24.521Z,4.50
2018-03-24T15:08:27.927Z,4.62
2018-03-24T15:13:31.190Z,4.50
2018-03-24T15:18:34.491Z,4.47
2018-03-24T15:23:37.920Z,4.83
2018-03-24T15:28:53.120Z,5.03
2018-03-24T15:34:08.365Z,5.03
2018-03-24T15:39:11.681Z,5.07
2018-03-24T15:44:15.166Z,5.37
2018-03-24T15:49:18.489Z,4.70
2018-03-24T15:54:21.754Z,4.87
2018-03-24T15:59:25.168Z,4.90
2018-03-24T16:04:28.436Z,4.83
2018-03-24T16:09:31.666Z,5.50
2018-03-24T16:14:35.057Z,5.57
2018-03-24T16:19:38.748Z,4.47
2018-03-24T16:24:42.042Z,5.23
2018-03-24T16:29:45.797Z,5.00
2018-03-24T16:34:49.450Z,4.97
2018-03-24T16:39:52.704Z,4.93
2018-03-24T16:44:56.513Z,5.60
2018-03-24T16:49:59.919Z,4.83
2018-03-24T16:55:03.815Z,5.03
2018-03-24T17:00:07.250Z,5.20
2018-03-24T17:05:10.623Z,6.23
2018-03-24T17:10:14.872Z,6.00
2018-03-24T17:15:18.557Z,5.50
2018-03-24T17:20:21.815Z,6.13
2018-03-24T17:25:25.038Z,4.93
2018-03-24T17:30:28.307Z,5.33
2018-03-24T17:35:31.990Z,5.27
2018-03-24T17:40:35.222Z,4.77
2018-03-24T17:45:38.857Z,5.37
2018-03-24T17:50:42.345Z,4.67
2018-03-24T17:55:46.008Z,6.97
2018-03-24T18:00:49.228Z,11.90
2018-03-24T18:05:55.665Z,8.23
2018-03-24T18:10:58.939Z,6.13
2018-03-24T18:16:02.752Z,4.67
2018-03-24T18:21:06.392Z,5.60
2018-03-24T18:26:09.629Z,5.10
2018-03-24T18:31:12.865Z,4.60
2018-03-24T18:36:16.488Z,4.93
2018-03-24T18:41:20.138Z,5.57
2018-03-24T18:46:23.489Z,5.80
2018-03-24T18:51:27.214Z,5.33
2018-03-24T18:56:30.483Z,5.30
2018-03-24T19:01:33.747Z,4.60
2018-03-24T19:06:37.089Z,4.90
2018-03-24T19:11:42.062Z,5.40
2018-03-24T19:16:45.457Z,4.33
2018-03-24T19:21:49.783Z,4.30
2018-03-24T19:26:53.503Z,3.70
2018-03-24T19:31:57.123Z,6.10
2018-03-24T19:37:00.814Z,4.40
2018-03-24T19:42:04.665Z,4.63
2018-03-24T19:47:08.135Z,5.20
2018-03-24T19:52:12.067Z,4.47
2018-03-24T19:57:15.852Z,4.00
2018-03-24T20:02:19.282Z,4.33
2018-03-24T20:07:23.220Z,4.83
2018-03-24T20:12:26.601Z,4.50
2018-03-24T20:17:31.124Z,5.20
2018-03-24T20:22:34.629Z,6.33
2018-03-24T20:27:38.136Z,5.00
2018-03-24T20:32:42.037Z,6.03
2018-03-24T20:37:45.665Z,6.50
2018-03-24T20:42:49.652Z,6.03
2018-03-24T20:47:53.271Z,5.67
2018-03-24T20:52:56.675Z,5.47
2018-03-24T20:57:59.978Z,5.20
2018-03-24T21:03:03.226Z,6.30
2018-03-24T21:08:06.786Z,5.47
2018-03-24T21:13:10.278Z,5.50
2018-03-24T21:18:13.859Z,5.97
2018-03-24T21:23:17.345Z,5.50
2018-03-24T21:28:21.378Z,6.50
2018-03-24T21:33:24.660Z,5.67
2018-03-24T21:38:27.970Z,5.93
2018-03-24T21:43:31.360Z,6.23
2018-03-24T21:48:34.981Z,6.07
2018-03-24T21:53:38.518Z,5.43
2018-03-24T21:58:41.898Z,5.97
2018-03-24T22:03:45.625Z,5.60
2018-03-24T22:08:49.009Z,5.63
2018-03-24T22:13:52.847Z,6.33
2018-03-24T22:18:56.069Z,5.40
2018-03-24T22:23:59.289Z,6.37
2018-03-24T22:29:02.824Z,5.83
2018-03-24T22:34:06.243Z,5.47
2018-03-24T22:39:09.538Z,5.93
2018-03-24T22:44:13.208Z,5.37
2018-03-24T22:49:16.767Z,5.83
2018-03-24T22:54:20.029Z,4.97
2018-03-24T22:59:23.248Z,6.10
2018-03-24T23:04:26.528Z,4.87
2018-03-24T23:09:29.762Z,5.77
2018-03-24T23:14:33.028Z,6.40
2018-03-24T23:19:36.240Z,6.03
2018-03-24T23:24:39.457Z,5.80
2018-03-24T23:29:42.787Z,5.87
2018-03-24T23:34:46.412Z,6.03
2018-03-24T23:39:50.272Z,5.93
2018-03-24T23:44:53.469Z,6.33
2018-03-24T23:49:57.283Z,6.77
2018-03-24T23:55:00.513Z,7.00
